Gdf Suez North Sea — HPSQ — position and weather

sailwx.info

Track history (hours):
 
Tides and Currents Weather Stations Pressure Air Temp Water Temp Dewpoint Dewpoint Depression Visibility Wind Speed Wind Dir Waves Ship Positions

Gdf Suez North Sea

Last reported at 2017-Feb-19 23:27 UTC. Time now 2017-Feb-20 22:22 UTC.
Position N 28°24' W 013°24'.

Length 190 m; draft 8.3 m.

Type: Cargo ship. MMSI: 373341000.

Date/timePositionNaut miles runAvg speedWind from/ knotsBaromVisibWave heightAir tempDewpointWater temp
2017-Feb-19 23:27N 28°24' W 013°24'1213.1
2017-Feb-19 22:33N 28°34' W 013°16'1313.1
2017-Feb-19 21:33N 28°45' W 013°09'1313.1
2017-Feb-19 20:33N 28°56' W 013°01'56112.7
2017-Feb-18 00:33N 35°58' W 005°43'1111.3
2017-Feb-17 23:34N 35°59' W 005°30'10 9.9
2017-Feb-17 22:34N 36°07' W 005°22'0 0.4
2017-Feb-17 21:31N 36°08' W 005°22'0 0.0
2017-Feb-17 20:32N 36°08' W 005°22'0 0.0
2017-Feb-17 19:32N 36°08' W 005°22'0 0.1
2017-Feb-17 18:32N 36°08' W 005°22'0 0.0
2017-Feb-17 17:32N 36°08' W 005°22'0 0.0
2017-Feb-17 16:31N 36°08' W 005°22'0 0.0
2017-Feb-17 15:32N 36°08' W 005°22'0 0.0
2017-Feb-17 14:31N 36°08' W 005°22'0 0.0
2017-Feb-17 13:32N 36°08' W 005°22'1 0.7
2017-Feb-17 12:34N 36°07' W 005°22'2 2.3
2017-Feb-17 11:34N 36°05' W 005°20'8 7.9
2017-Feb-17 10:34N 36°06' W 005°11'1 1.0
2017-Feb-17 09:33N 36°05' W 005°11'2 2.1
2017-Feb-17 08:33N 36°04' W 005°13'3 2.6
2017-Feb-17 07:32N 36°05' W 005°10'  
2017-Feb-14 07:19N 36°34' E 013°39'1213.0
2017-Feb-14 06:25N 36°30' E 013°53'1113.1
2017-Feb-14 05:33N 36°28' E 014°07'1312.9
2017-Feb-14 04:34N 36°27' E 014°23'1313.2
2017-Feb-14 03:33N 36°26' E 014°39'  
Track history (hours):
 
Tides and Currents Weather Stations Pressure Air Temp Water Temp Dewpoint Dewpoint Depression Visibility Wind Speed Wind Dir Waves Ship Positions

Gdf Suez North Sea

Last reported at 2017-Feb-19 23:27 UTC. Time now 2017-Feb-20 22:22 UTC.
Position N 28°24' W 013°24'.

Length 190 m; draft 8.3 m.

Type: Cargo ship. MMSI: 373341000.

Date/timePositionNaut miles runAvg speedWind from/ knotsBaromVisibWave heightAir tempDewpointWater temp
2017-Feb-19 23:27N 28°24' W 013°24'1213.1
2017-Feb-19 22:33N 28°34' W 013°16'1313.1
2017-Feb-19 21:33N 28°45' W 013°09'1313.1
2017-Feb-19 20:33N 28°56' W 013°01'56112.7
2017-Feb-18 00:33N 35°58' W 005°43'1111.3
2017-Feb-17 23:34N 35°59' W 005°30'10 9.9
2017-Feb-17 22:34N 36°07' W 005°22'0 0.4
2017-Feb-17 21:31N 36°08' W 005°22'0 0.0
2017-Feb-17 20:32N 36°08' W 005°22'0 0.0
2017-Feb-17 19:32N 36°08' W 005°22'0 0.1
2017-Feb-17 18:32N 36°08' W 005°22'0 0.0
2017-Feb-17 17:32N 36°08' W 005°22'0 0.0
2017-Feb-17 16:31N 36°08' W 005°22'0 0.0
2017-Feb-17 15:32N 36°08' W 005°22'0 0.0
2017-Feb-17 14:31N 36°08' W 005°22'0 0.0
2017-Feb-17 13:32N 36°08' W 005°22'1 0.7
2017-Feb-17 12:34N 36°07' W 005°22'2 2.3
2017-Feb-17 11:34N 36°05' W 005°20'8 7.9
2017-Feb-17 10:34N 36°06' W 005°11'1 1.0
2017-Feb-17 09:33N 36°05' W 005°11'2 2.1
2017-Feb-17 08:33N 36°04' W 005°13'3 2.6
2017-Feb-17 07:32N 36°05' W 005°10'  
2017-Feb-14 07:19N 36°34' E 013°39'1213.0
2017-Feb-14 06:25N 36°30' E 013°53'1113.1
2017-Feb-14 05:33N 36°28' E 014°07'1312.9
2017-Feb-14 04:34N 36°27' E 014°23'1313.2
2017-Feb-14 03:33N 36°26' E 014°39'  

Dump ship's entire track history